Terminal Aerodrome Forecast
Issued by NWS Bismarck, ND

Home | Current Version | Previous Version | Text Only | Print | Product List | Glossary Off
Versions: 1 2 3 4 5 6 7 8 9 10 11 12 13 14 15 16 17 18

241
FTUS43 KBIS 141435 AAC
TAFBIS
TAF AMD
KBIS 141435Z 1415/1512 20005KT P6SM VCSH OVC040
     FM141600 29011KT P6SM BKN060
     FM141800 32016G24KT 6SM BLSN BKN050
     FM142300 33017KT P6SM SCT110
     FM150200 33010KT P6SM FEW250=

USA.gov is the U.S. government's official web portal to all federal, state and local government web resources and services.